Time;durP1;ratioP1;P1;durP2;ratioP2;P2;SDS_P1;SDS_P2;PMS_P1;PMS_P2;Temp;Humidity;BMP_temperature;BMP_pressure;BME280_temperature;BME280_humidity;BME280_pressure;Samples;Min_cycle;Max_cycle;Signal;HPM_P1;HPM_P2
2022/12/05 00:00:55;;;;;;;75.47;34.30;;;1.80;99.90;;;;;;5050959;28;20473;-54
2022/12/05 00:03:21;;;;;;;64.60;31.52;;;1.80;99.90;;;;;;5050735;28;20815;-54
2022/12/05 00:05:47;;;;;;;63.73;31.63;;;1.80;99.90;;;;;;5050527;28;20037;-54
2022/12/05 00:08:13;;;;;;;64.78;30.20;;;1.70;99.90;;;;;;5050369;28;20023;-55
2022/12/05 00:10:39;;;;;;;66.97;30.45;;;1.70;99.90;;;;;;5050084;28;20036;-55
2022/12/05 00:13:05;;;;;;;67.50;30.17;;;1.70;99.90;;;;;;5050397;28;20055;-54
2022/12/05 00:15:31;;;;;;;66.95;30.92;;;1.70;99.90;;;;;;5050262;28;20037;-53
2022/12/05 00:17:56;;;;;;;61.67;30.52;;;1.70;99.90;;;;;;5050405;28;20025;-54
2022/12/05 00:20:22;;;;;;;62.67;30.40;;;1.70;99.90;;;;;;5050225;28;20036;-54
2022/12/05 00:22:48;;;;;;;59.70;30.40;;;1.70;99.90;;;;;;5049669;28;20530;-53
2022/12/05 00:25:13;;;;;;;62.70;30.75;;;1.70;99.90;;;;;;5050227;28;20028;-56
2022/12/05 00:27:39;;;;;;;62.05;28.98;;;1.70;99.90;;;;;;5050502;28;20035;-59
2022/12/05 00:30:05;;;;;;;62.22;30.73;;;1.70;99.90;;;;;;5050193;28;20079;-60
2022/12/05 00:32:31;;;;;;;68.22;31.23;;;1.60;99.90;;;;;;5049808;28;20033;-53
2022/12/05 00:34:57;;;;;;;63.42;29.70;;;1.70;99.90;;;;;;5050138;28;20040;-55
2022/12/05 00:37:23;;;;;;;68.45;31.63;;;1.70;99.90;;;;;;5050285;28;20032;-55
2022/12/05 00:39:48;;;;;;;67.00;32.17;;;1.60;99.90;;;;;;5048403;28;20037;-54
2022/12/05 00:42:14;;;;;;;65.18;32.70;;;1.70;99.90;;;;;;5050174;28;20071;-54
2022/12/05 00:44:40;;;;;;;70.15;30.45;;;1.70;99.90;;;;;;5049962;28;20045;-56
2022/12/05 00:47:06;;;;;;;65.43;29.98;;;1.60;99.90;;;;;;5049917;28;20132;-59
2022/12/05 00:49:31;;;;;;;65.70;29.98;;;1.60;99.90;;;;;;5031873;28;20496;-61
2022/12/05 00:51:57;;;;;;;65.65;29.98;;;1.60;99.90;;;;;;5050221;28;20029;-59
2022/12/05 00:54:23;;;;;;;61.22;29.02;;;1.60;99.90;;;;;;5050135;28;20025;-57
2022/12/05 00:56:51;;;;;;;61.95;30.85;;;1.60;99.90;;;;;;5049811;28;20035;-55
2022/12/05 00:59:18;;;;;;;63.47;30.33;;;1.60;99.90;;;;;;5049791;28;20033;-61
2022/12/05 01:01:45;;;;;;;69.65;32.53;;;1.60;99.90;;;;;;5049767;28;20623;-55
2022/12/05 01:04:13;;;;;;;;;;;1.60;99.90;;;;;;5050302;28;20032;-55
2022/12/05 01:06:39;;;;;;;74.65;32.10;;;1.60;99.90;;;;;;5049761;28;20318;-55
2022/12/05 01:09:04;;;;;;;61.03;26.85;;;1.50;99.90;;;;;;5049837;28;20032;-55
2022/12/05 01:11:30;;;;;;;69.10;30.13;;;1.50;99.90;;;;;;5049524;28;20111;-55
2022/12/05 01:13:57;;;;;;;65.13;29.45;;;1.60;99.90;;;;;;5049751;28;20029;-54
2022/12/05 01:16:24;;;;;;;68.10;29.88;;;1.50;99.90;;;;;;5047537;28;20025;-58
2022/12/05 01:18:50;;;;;;;63.63;29.20;;;1.50;99.90;;;;;;5049249;28;20079;-55
2022/12/05 01:21:16;;;;;;;62.10;28.33;;;1.60;99.90;;;;;;5049757;28;20063;-54
2022/12/05 01:23:42;;;;;;;64.13;30.27;;;1.60;99.90;;;;;;5049455;28;20029;-57
2022/12/05 01:26:12;;;;;;;71.93;31.23;;;1.60;99.90;;;;;;5049421;28;20599;-59
2022/12/05 01:28:38;;;;;;;60.50;29.30;;;1.60;99.90;;;;;;5049439;28;20025;-53
2022/12/05 01:31:07;;;;;;;67.95;29.33;;;1.60;99.90;;;;;;5049468;28;20033;-60
2022/12/05 01:33:33;;;;;;;69.88;32.15;;;1.60;99.90;;;;;;5051227;28;20159;-53
2022/12/05 01:35:59;;;;;;;63.10;29.52;;;1.60;99.90;;;;;;5053193;28;20074;-59
2022/12/05 01:38:25;;;;;;;66.13;29.63;;;1.60;99.90;;;;;;5053132;28;20029;-60
2022/12/05 01:40:59;;;;;;;67.95;30.45;;;1.60;99.90;;;;;;5053224;28;20040;-56
2022/12/05 01:43:25;;;;;;;62.80;29.05;;;1.60;99.90;;;;;;5053194;28;20032;-54
2022/12/05 01:45:50;;;;;;;64.65;27.75;;;1.60;99.90;;;;;;5052964;28;20029;-57
2022/12/05 01:48:24;;;;;;;64.13;28.30;;;1.60;99.90;;;;;;5053209;28;20021;-59
2022/12/05 01:50:50;;;;;;;65.00;28.23;;;1.60;99.90;;;;;;5034989;28;20029;-54
2022/12/05 01:53:17;;;;;;;63.33;27.13;;;1.60;99.90;;;;;;5052623;28;20040;-54
2022/12/05 01:55:44;;;;;;;67.03;30.60;;;1.60;99.90;;;;;;5052925;28;20037;-55
2022/12/05 01:58:10;;;;;;;62.45;29.20;;;1.60;99.90;;;;;;5052744;28;20020;-55
2022/12/05 02:00:35;;;;;;;65.80;29.08;;;1.60;99.90;;;;;;5052796;28;20112;-55
2022/12/05 02:03:06;;;;;;;66.20;28.90;;;1.60;99.90;;;;;;5052755;28;20060;-54
2022/12/05 02:05:35;;;;;;;57.03;27.80;;;1.60;99.90;;;;;;5052814;28;20480;-61
2022/12/05 02:08:04;;;;;;;65.65;29.75;;;1.60;99.90;;;;;;5051314;28;20059;-55
2022/12/05 02:10:48;;;;;;;67.57;29.85;;;1.60;99.90;;;;;;5052591;28;20095;-57
2022/12/05 02:13:22;;;;;;;60.22;28.75;;;1.60;99.90;;;;;;5052575;28;20472;-54
2022/12/05 02:15:59;;;;;;;61.22;29.65;;;1.60;99.90;;;;;;5052418;28;20541;-57
2022/12/05 02:18:49;;;;;;;67.80;30.75;;;1.60;99.90;;;;;;5052516;28;20374;-60
2022/12/05 02:21:57;;;;;;;63.25;29.17;;;1.60;99.90;;;;;;5052364;28;20111;-53
2022/12/05 02:24:32;;;;;;;63.63;30.15;;;1.70;99.90;;;;;;5043993;28;20166;-53
2022/12/05 02:27:09;;;;;;;67.55;30.23;;;1.70;99.90;;;;;;5052235;28;20532;-56
2022/12/05 02:30:03;;;;;;;71.60;30.63;;;1.70;99.90;;;;;;5052229;28;20082;-55
2022/12/05 02:32:31;;;;;;;68.45;31.40;;;1.70;99.90;;;;;;5052082;28;20029;-54
2022/12/05 02:35:06;;;;;;;62.47;29.92;;;1.70;99.90;;;;;;5052106;28;20361;-56
2022/12/05 02:37:41;;;;;;;65.22;28.98;;;1.70;99.90;;;;;;5052081;28;20043;-54
2022/12/05 02:40:44;;;;;;;63.50;28.63;;;1.70;99.90;;;;;;5051838;28;20036;-53
2022/12/05 02:43:19;;;;;;;57.58;27.02;;;1.70;99.90;;;;;;5017942;28;20044;-59
2022/12/05 02:45:49;;;;;;;60.65;29.77;;;1.70;99.90;;;;;;5051042;28;20530;-54
2022/12/05 02:48:16;;;;;;;64.72;30.95;;;1.70;99.90;;;;;;5051730;28;20021;-57
2022/12/05 02:50:42;;;;;;;;;;;1.70;99.90;;;;;;5052332;28;20033;-59
2022/12/05 02:53:12;;;;;;;55.75;27.42;;;1.70;99.90;;;;;;5051944;28;19912;-58
2022/12/05 02:55:40;;;;;;;61.65;28.10;;;1.70;99.90;;;;;;5033897;28;20047;-60
2022/12/05 02:58:11;;;;;;;65.30;29.20;;;1.70;99.90;;;;;;5051507;28;20079;-60
2022/12/05 03:00:39;;;;;;;58.38;27.88;;;1.80;99.90;;;;;;5051811;28;20116;-59
2022/12/05 03:03:17;;;;;;;59.72;29.67;;;1.70;99.90;;;;;;5051362;28;20020;-56
2022/12/05 03:06:01;;;;;;;59.40;28.55;;;1.70;99.90;;;;;;5051862;28;20029;-55
2022/12/05 03:08:50;;;;;;;56.58;28.80;;;1.70;99.90;;;;;;5051433;28;20021;-60
2022/12/05 03:11:16;;;;;;;55.25;27.30;;;1.70;99.90;;;;;;5051430;28;20033;-59
2022/12/05 03:13:48;;;;;;;54.00;27.00;;;1.80;99.90;;;;;;5051647;28;20028;-59
2022/12/05 03:16:21;;;;;;;54.75;26.85;;;1.70;99.90;;;;;;5051301;28;20170;-53
2022/12/05 03:18:55;;;;;;;59.13;26.42;;;1.80;99.90;;;;;;5049867;28;20392;-53
2022/12/05 03:21:29;;;;;;;52.58;25.33;;;1.70;99.90;;;;;;5049933;28;20110;-55
2022/12/05 03:24:03;;;;;;;54.30;25.45;;;1.70;99.90;;;;;;5051382;28;20029;-55
2022/12/05 03:26:52;;;;;;;52.22;26.13;;;1.80;99.90;;;;;;5050983;28;20045;-54
2022/12/05 03:29:54;;;;;;;55.95;26.70;;;1.80;99.90;;;;;;5051166;28;20028;-55
2022/12/05 03:32:27;;;;;;;51.97;25.23;;;1.80;99.90;;;;;;5049649;28;20029;-53
2022/12/05 03:35:10;;;;;;;53.33;27.20;;;1.80;99.90;;;;;;5051136;28;20024;-55
2022/12/05 03:37:45;;;;;;;54.53;25.60;;;1.70;99.90;;;;;;5050975;28;20480;-59
2022/12/05 03:40:26;;;;;;;55.10;27.15;;;1.80;99.90;;;;;;5050853;28;20484;-56
2022/12/05 03:43:08;;;;;;;58.53;27.65;;;1.80;99.90;;;;;;5050911;28;20033;-54
2022/12/05 03:46:03;;;;;;;54.35;27.23;;;1.70;99.90;;;;;;5050872;28;20138;-53
2022/12/05 03:48:36;;;;;;;58.13;28.55;;;1.70;99.90;;;;;;5046815;28;20047;-60
2022/12/05 03:51:06;;;;;;;65.53;29.77;;;1.60;99.90;;;;;;5051189;28;20021;-57
2022/12/05 03:53:37;;;;;;;51.70;25.48;;;1.70;99.90;;;;;;5050852;28;20108;-60
2022/12/05 03:56:09;;;;;;;54.45;25.83;;;1.60;99.90;;;;;;5050505;28;20486;-54
2022/12/05 03:58:43;;;;;;;56.92;26.90;;;1.70;99.90;;;;;;5050480;28;20072;-60
2022/12/05 04:01:11;;;;;;;54.15;27.20;;;1.70;99.90;;;;;;5050752;28;20028;-54
2022/12/05 04:03:45;;;;;;;53.53;26.13;;;1.70;99.90;;;;;;5050503;28;20040;-55
2022/12/05 04:06:28;;;;;;;51.42;26.15;;;1.70;99.90;;;;;;5050693;28;20025;-54
2022/12/05 04:08:59;;;;;;;52.97;25.48;;;1.70;99.90;;;;;;5050574;28;20039;-54
2022/12/05 04:11:28;;;;;;;51.50;25.23;;;1.70;99.90;;;;;;5044038;28;20031;-54
2022/12/05 04:13:59;;;;;;;53.92;24.67;;;1.70;99.90;;;;;;5050426;28;20482;-57
2022/12/05 04:19:25;;;;;;;49.70;24.48;;;1.70;99.90;;;;;;5050457;28;20043;-54
2022/12/05 04:21:54;;;;;;;51.40;24.90;;;1.70;99.90;;;;;;5050305;28;20029;-58
2022/12/05 04:27:17;;;;;;;53.25;24.85;;;1.70;99.90;;;;;;5050092;28;20618;-55
2022/12/05 04:30:01;;;;;;;51.78;25.20;;;1.70;99.90;;;;;;5050334;28;20028;-55
2022/12/05 04:32:33;;;;;;;50.97;26.10;;;1.80;99.90;;;;;;5031995;28;20145;-60
2022/12/05 04:35:05;;;;;;;51.33;26.00;;;1.80;99.90;;;;;;5049883;28;20382;-54
2022/12/05 04:37:36;;;;;;;48.97;25.48;;;1.80;99.90;;;;;;5050062;28;20029;-55
2022/12/05 04:40:20;;;;;;;52.97;25.80;;;1.80;99.90;;;;;;5050181;28;20031;-54
2022/12/05 04:42:49;;;;;;;52.58;26.13;;;1.80;99.90;;;;;;5049905;28;20391;-57
2022/12/05 04:45:17;;;;;;;52.05;26.60;;;1.70;99.90;;;;;;5049791;28;20021;-58
2022/12/05 04:47:49;;;;;;;58.33;27.95;;;1.70;99.90;;;;;;5015448;28;20128;-55
2022/12/05 04:50:16;;;;;;;55.63;26.48;;;1.80;99.90;;;;;;5050001;28;20021;-60
2022/12/05 04:52:47;;;;;;;55.25;27.65;;;1.80;99.90;;;;;;5049712;28;20071;-54
2022/12/05 04:55:16;;;;;;;57.88;27.60;;;1.80;99.90;;;;;;5050030;28;20037;-58
2022/12/05 04:57:50;;;;;;;57.15;28.63;;;1.80;99.90;;;;;;5049614;28;20033;-58
2022/12/05 05:00:16;;;;;;;53.67;25.80;;;1.80;99.90;;;;;;5050021;28;20036;-59
2022/12/05 05:02:46;;;;;;;53.00;26.92;;;1.80;99.90;;;;;;5031650;28;20112;-57
2022/12/05 05:05:16;;;;;;;55.58;27.23;;;1.80;99.90;;;;;;5049762;28;20028;-54
2022/12/05 05:07:53;;;;;;;55.60;27.65;;;1.70;99.90;;;;;;5049930;28;20116;-55
2022/12/05 05:10:25;;;;;;;58.20;27.80;;;1.70;99.90;;;;;;5053782;28;20100;-54
2022/12/05 05:12:51;;;;;;;56.63;28.73;;;1.70;99.90;;;;;;5053600;28;20040;-59
2022/12/05 05:15:17;;;;;;;62.83;27.55;;;1.80;99.90;;;;;;5053783;28;20021;-57
2022/12/05 05:17:42;;;;;;;55.78;28.08;;;1.70;99.90;;;;;;5053389;28;20639;-54
2022/12/05 05:20:23;;;;;;;58.78;28.65;;;1.70;99.90;;;;;;5053690;28;20025;-54
2022/12/05 05:22:50;;;;;;;61.35;29.25;;;1.70;99.90;;;;;;5053720;28;20147;-54
2022/12/05 05:25:17;;;;;;;61.20;29.15;;;1.60;99.90;;;;;;5051901;28;20029;-55
2022/12/05 05:27:46;;;;;;;57.70;29.17;;;1.70;99.90;;;;;;5053709;28;20192;-54
2022/12/05 05:30:12;;;;;;;63.90;29.98;;;1.60;99.90;;;;;;5053461;28;20481;-55
2022/12/05 05:32:37;;;;;;;67.65;29.85;;;1.60;99.90;;;;;;5051923;28;20021;-57
2022/12/05 05:35:03;;;;;;;60.65;30.65;;;1.60;99.90;;;;;;5053038;28;20468;-63
2022/12/05 05:37:29;;;;;;;58.53;27.23;;;1.60;99.90;;;;;;5053328;28;20488;-61
2022/12/05 05:39:54;;;;;;;64.25;30.95;;;1.60;99.90;;;;;;5053049;28;20036;-61
2022/12/05 05:42:20;;;;;;;63.83;28.77;;;1.60;99.90;;;;;;5053400;28;20025;-57
2022/12/05 05:44:45;;;;;;;59.88;28.63;;;1.60;99.90;;;;;;5053194;28;20024;-55
2022/12/05 05:47:11;;;;;;;62.13;29.55;;;1.60;99.90;;;;;;5053217;28;20515;-55
2022/12/05 05:49:37;;;;;;;63.95;29.73;;;1.60;99.90;;;;;;5052977;28;20036;-54
2022/12/05 05:52:03;;;;;;;69.35;30.77;;;1.60;99.90;;;;;;5053266;28;20107;-54
2022/12/05 05:54:29;;;;;;;65.35;30.75;;;1.50;99.90;;;;;;5053182;28;20082;-53
2022/12/05 05:56:54;;;;;;;67.75;33.08;;;1.60;99.90;;;;;;5052898;28;20029;-55
2022/12/05 05:59:20;;;;;;;72.90;33.28;;;1.50;99.90;;;;;;5052939;28;20116;-53
2022/12/05 06:01:46;;;;;;;68.93;32.72;;;1.50;99.90;;;;;;5051656;28;20025;-55
2022/12/05 06:04:11;;;;;;;68.38;30.88;;;1.50;99.90;;;;;;5052687;28;20032;-57
2022/12/05 06:06:37;;;;;;;73.50;33.10;;;1.60;99.90;;;;;;5052934;28;20032;-58
2022/12/05 06:09:06;;;;;;;69.80;34.60;;;1.50;99.90;;;;;;5051044;28;20060;-62
2022/12/05 06:11:31;;;;;;;77.38;35.55;;;1.50;99.90;;;;;;5052820;28;20065;-53
2022/12/05 06:14:01;;;;;;;73.22;32.97;;;1.50;99.90;;;;;;5052607;28;20082;-54
2022/12/05 06:16:28;;;;;;;79.10;34.10;;;1.50;99.90;;;;;;5052457;28;20029;-53
2022/12/05 06:18:54;;;;;;;73.57;34.58;;;1.50;99.90;;;;;;5051741;28;20075;-54
2022/12/05 06:21:21;;;;;;;72.88;34.85;;;1.50;99.90;;;;;;5051655;28;20063;-57
2022/12/05 06:23:47;;;;;;;79.28;35.15;;;1.60;99.90;;;;;;5054782;28;20032;-56
2022/12/05 06:26:16;;;;;;;79.75;35.55;;;1.60;99.90;;;;;;5041592;28;20083;-59
2022/12/05 06:28:41;;;;;;;70.50;32.13;;;1.60;99.90;;;;;;5060621;28;20016;-55
2022/12/05 06:31:10;;;;;;;69.88;33.92;;;1.60;99.90;;;;;;5060377;28;20346;-54
2022/12/05 06:33:36;;;;;;;79.93;34.47;;;1.60;99.90;;;;;;5052025;28;20043;-55
2022/12/05 06:36:07;;;;;;;86.13;37.80;;;1.60;99.90;;;;;;5061604;28;20515;-59
2022/12/05 06:38:33;;;;;;;67.85;34.38;;;1.60;99.90;;;;;;5057565;28;20036;-53
2022/12/05 06:40:59;;;;;;;78.03;37.35;;;1.70;99.90;;;;;;5060414;28;20086;-53
2022/12/05 06:43:24;;;;;;;80.53;38.30;;;1.60;99.90;;;;;;5059424;28;20029;-54
2022/12/05 06:45:50;;;;;;;82.18;36.05;;;1.70;99.90;;;;;;5043090;28;20039;-54
2022/12/05 06:48:16;;;;;;;76.00;36.03;;;1.70;99.90;;;;;;5059061;28;20103;-55
2022/12/05 06:50:51;;;;;;;79.47;35.42;;;1.70;99.90;;;;;;5055385;28;20021;-56
2022/12/05 06:53:20;;;;;;;81.65;35.65;;;1.70;99.90;;;;;;5060117;28;20027;-53
2022/12/05 06:56:04;;;;;;;81.65;37.20;;;1.70;99.90;;;;;;5041569;28;20411;-55
2022/12/05 06:58:30;;;;;;;79.07;34.85;;;1.70;99.90;;;;;;5061355;28;20028;-54
2022/12/05 07:03:42;;;;;;;77.68;35.70;;;1.70;99.90;;;;;;5059586;28;20554;-57
2022/12/05 07:06:08;;;;;;;77.75;35.53;;;1.70;99.90;;;;;;5041795;28;20090;-55
2022/12/05 07:08:34;;;;;;;77.70;36.53;;;1.80;99.90;;;;;;5040812;28;20610;-55
2022/12/05 07:11:01;;;;;;;74.95;35.60;;;1.80;99.90;;;;;;5039857;28;20064;-57
2022/12/05 07:13:27;;;;;;;80.15;36.17;;;1.80;99.90;;;;;;5050664;28;20487;-55
2022/12/05 07:15:52;;;;;;;80.00;36.20;;;1.80;99.90;;;;;;5060905;28;20028;-58
2022/12/05 07:18:18;;;;;;;79.78;36.45;;;1.80;99.90;;;;;;5041393;28;20064;-59
2022/12/05 07:20:44;;;;;;;76.72;36.10;;;1.80;99.90;;;;;;5040545;28;20030;-57
2022/12/05 07:23:10;;;;;;;79.97;38.67;;;1.90;99.90;;;;;;5038615;28;20064;-59
2022/12/05 07:25:40;;;;;;;80.35;35.50;;;1.90;99.90;;;;;;5040448;28;20044;-58
2022/12/05 07:28:06;;;;;;;80.80;37.03;;;2.00;99.90;;;;;;5040892;28;20022;-57
2022/12/05 07:30:32;;;;;;;77.37;35.47;;;2.00;99.90;;;;;;5038450;28;20025;-56
2022/12/05 07:32:57;;;;;;;76.65;36.55;;;2.00;99.90;;;;;;5040317;28;20268;-55
2022/12/05 07:35:23;;;;;;;76.45;36.35;;;2.00;99.90;;;;;;5040671;28;20056;-57
2022/12/05 07:37:48;;;;;;;71.32;34.47;;;2.00;99.90;;;;;;5044305;28;20025;-58
2022/12/05 07:40:14;;;;;;;76.32;36.00;;;2.00;99.90;;;;;;5050755;28;20036;-59
2022/12/05 07:42:40;;;;;;;84.53;38.58;;;2.10;99.90;;;;;;5050500;28;20079;-58
2022/12/05 07:45:06;;;;;;;78.45;37.63;;;2.00;99.90;;;;;;5049387;28;20035;-55
2022/12/05 07:47:32;;;;;;;76.30;36.30;;;2.10;99.90;;;;;;5050694;28;20056;-59
2022/12/05 07:49:57;;;;;;;80.72;39.17;;;2.10;99.90;;;;;;5050332;28;20057;-56
2022/12/05 07:52:23;;;;;;;87.38;38.22;;;2.10;99.90;;;;;;5050536;28;20017;-54
2022/12/05 07:54:49;;;;;;;82.63;39.45;;;2.20;99.90;;;;;;5050610;28;20060;-53
2022/12/05 07:57:14;;;;;;;83.05;38.58;;;2.20;99.90;;;;;;5045009;28;20380;-53
2022/12/05 07:59:40;;;;;;;79.82;37.38;;;2.30;99.90;;;;;;5037236;28;20044;-53
2022/12/05 08:02:07;;;;;;;88.40;37.97;;;2.30;99.90;;;;;;5037948;28;20028;-54
2022/12/05 08:04:33;;;;;;;;;;;2.30;99.90;;;;;;5039200;28;20115;-57
2022/12/05 08:06:59;;;;;;;81.82;36.92;;;2.30;99.90;;;;;;5042137;28;19996;-58
2022/12/05 08:09:25;;;;;;;77.05;36.45;;;2.40;99.90;;;;;;5019876;28;20033;-58
2022/12/05 08:11:50;;;;;;;78.95;36.85;;;2.40;99.90;;;;;;5044906;28;20035;-59
2022/12/05 08:14:16;;;;;;;78.68;36.13;;;2.40;99.90;;;;;;5056986;28;20021;-57
2022/12/05 08:16:41;;;;;;;78.35;37.20;;;2.40;99.90;;;;;;5058999;28;20037;-53
2022/12/05 08:19:09;;;;;;;76.18;39.10;;;2.40;99.90;;;;;;5059468;28;20090;-53
2022/12/05 08:21:35;;;;;;;78.82;36.92;;;2.40;99.90;;;;;;5060423;28;20028;-52
2022/12/05 08:24:04;;;;;;;77.57;38.45;;;2.50;99.90;;;;;;5050117;28;20387;-53
2022/12/05 08:26:31;;;;;;;91.32;44.45;;;2.50;99.90;;;;;;5049768;28;20068;-58
2022/12/05 08:28:58;;;;;;;90.40;43.72;;;2.60;99.90;;;;;;5051743;28;20067;-55
2022/12/05 08:31:26;;;;;;;75.25;36.28;;;2.60;99.90;;;;;;5066370;28;20044;-54
2022/12/05 08:33:52;;;;;;;70.25;35.97;;;2.60;99.90;;;;;;5069751;28;20036;-52
2022/12/05 08:36:18;;;;;;;80.55;39.88;;;2.60;99.90;;;;;;5069861;28;20027;-54
2022/12/05 08:38:45;;;;;;;72.27;34.90;;;2.60;99.90;;;;;;5060397;28;20037;-61
2022/12/05 08:41:13;;;;;;;76.20;35.83;;;2.60;99.90;;;;;;5060037;28;20301;-55
2022/12/05 08:43:39;;;;;;;71.82;36.47;;;2.60;99.90;;;;;;5059509;28;20264;-54
2022/12/05 08:46:05;;;;;;;81.95;38.08;;;2.70;99.90;;;;;;5053696;28;20029;-53
2022/12/05 08:48:32;;;;;;;75.50;37.60;;;2.80;99.90;;;;;;5049479;28;20449;-60
2022/12/05 08:50:58;;;;;;;73.05;36.33;;;2.90;99.90;;;;;;5049690;28;20017;-54
2022/12/05 08:53:25;;;;;;;82.07;38.72;;;2.90;99.90;;;;;;5049591;28;20036;-55
2022/12/05 08:55:51;;;;;;;75.57;38.95;;;3.00;99.90;;;;;;5049665;28;20025;-59
2022/12/05 08:58:16;;;;;;;82.75;37.42;;;3.00;99.90;;;;;;5049490;28;20040;-60
2022/12/05 09:00:42;;;;;;;77.80;37.60;;;3.10;99.90;;;;;;5049732;28;20427;-56
2022/12/05 09:03:11;;;;;;;68.07;37.08;;;3.20;99.90;;;;;;5049305;28;20029;-57
2022/12/05 09:05:37;;;;;;;70.57;34.25;;;3.20;99.90;;;;;;5048220;28;20049;-54
2022/12/05 09:08:03;;;;;;;69.57;33.72;;;3.20;99.90;;;;;;5047832;28;20056;-54
2022/12/05 09:10:29;;;;;;;67.97;34.85;;;3.20;99.90;;;;;;5049199;28;20404;-54
2022/12/05 09:12:54;;;;;;;68.03;35.80;;;3.20;99.90;;;;;;5049684;28;20033;-53
2022/12/05 09:15:20;;;;;;;72.80;34.08;;;3.20;99.90;;;;;;5049761;28;20436;-55
2022/12/05 09:17:46;;;;;;;70.95;37.55;;;3.30;99.90;;;;;;5049553;28;20572;-56
2022/12/05 09:20:12;;;;;;;69.63;38.30;;;3.40;99.90;;;;;;5046694;28;20047;-54
2022/12/05 09:22:41;;;;;;;68.97;35.42;;;3.20;99.90;;;;;;5046110;28;20124;-54
2022/12/05 09:25:08;;;;;;;66.20;34.95;;;3.30;99.90;;;;;;5045925;28;20029;-54
2022/12/05 09:27:34;;;;;;;74.15;35.47;;;3.30;99.90;;;;;;5046526;28;20033;-62
2022/12/05 09:30:00;;;;;;;84.95;39.28;;;3.30;99.90;;;;;;5047487;28;20762;-56
2022/12/05 09:32:25;;;;;;;72.90;38.72;;;3.30;99.90;;;;;;5048136;28;20024;-55
2022/12/05 09:34:51;;;;;;;76.00;40.33;;;3.30;99.90;;;;;;5048916;28;20032;-54
2022/12/05 09:37:17;;;;;;;70.95;38.40;;;3.40;99.90;;;;;;5049514;28;20090;-54
2022/12/05 09:39:46;;;;;;;68.43;35.63;;;3.50;99.90;;;;;;5049168;28;20488;-54
2022/12/05 09:42:34;;;;;;;74.18;38.28;;;3.50;99.90;;;;;;5049355;28;20021;-58
2022/12/05 09:45:31;;;;;;;69.75;36.53;;;3.60;99.90;;;;;;5038165;28;20128;-53
2022/12/05 09:48:03;;;;;;;77.95;38.25;;;3.70;99.90;;;;;;5049274;28;20083;-56
2022/12/05 09:51:13;;;;;;;76.53;39.17;;;3.60;99.90;;;;;;5049400;28;20025;-60
2022/12/05 09:53:42;;;;;;;79.38;38.63;;;3.70;99.90;;;;;;5047385;28;20044;-60
2022/12/05 09:56:28;;;;;;;69.22;35.72;;;3.80;99.90;;;;;;5053254;28;20040;-54
2022/12/05 09:58:56;;;;;;;73.03;37.78;;;3.80;99.90;;;;;;5052851;28;20041;-56
2022/12/05 10:01:59;;;;;;;75.75;38.25;;;3.70;99.90;;;;;;5052816;28;20076;-56
2022/12/05 10:04:30;;;;;;;69.10;37.80;;;3.80;99.90;;;;;;5052614;28;20029;-60
2022/12/05 10:07:31;;;;;;;75.88;38.80;;;3.80;99.90;;;;;;5051397;28;20029;-61
2022/12/05 10:10:17;;;;;;;68.97;37.08;;;4.10;99.90;;;;;;5053061;28;20029;-55
2022/12/05 10:12:55;;;;;;;67.28;34.55;;;4.40;99.90;;;;;;5052404;28;20025;-56
2022/12/05 10:15:44;;;;;;;65.70;37.55;;;4.40;99.90;;;;;;5052537;28;20135;-57
2022/12/05 10:18:19;;;;;;;76.32;39.55;;;4.50;99.90;;;;;;5052695;28;20029;-55
2022/12/05 10:20:55;;;;;;;75.38;39.20;;;4.50;99.90;;;;;;5051607;28;20032;-56
2022/12/05 10:23:25;;;;;;;69.38;38.38;;;4.50;99.90;;;;;;5051817;28;20033;-58
2022/12/05 10:25:56;;;;;;;72.30;39.95;;;4.70;99.90;;;;;;5052281;28;20061;-57
2022/12/05 10:28:38;;;;;;;73.47;41.55;;;4.60;99.90;;;;;;5052550;28;20108;-61
2022/12/05 10:31:11;;;;;;;67.75;39.17;;;4.40;99.90;;;;;;5052286;28;20095;-56
2022/12/05 10:33:42;;;;;;;83.78;44.22;;;4.30;99.90;;;;;;5052135;28;20091;-58
2022/12/05 10:36:13;;;;;;;74.40;40.60;;;4.20;99.90;;;;;;5052276;28;20091;-62
2022/12/05 10:38:41;;;;;;;82.70;44.58;;;4.20;99.90;;;;;;5051922;28;20564;-54
2022/12/05 10:41:11;;;;;;;86.90;46.75;;;4.30;99.90;;;;;;5052070;28;20036;-61
2022/12/05 10:43:41;;;;;;;86.40;48.08;;;4.30;99.90;;;;;;5051874;28;20068;-59
2022/12/05 10:46:07;;;;;;;89.15;47.00;;;4.20;99.90;;;;;;5051887;28;20028;-61
2022/12/05 10:48:38;;;;;;;84.23;48.00;;;4.20;99.90;;;;;;5052118;28;20442;-55
2022/12/05 10:51:05;;;;;;;82.68;44.78;;;4.10;99.90;;;;;;5051774;28;20367;-60
2022/12/05 10:53:44;;;;;;;83.88;46.65;;;4.10;99.90;;;;;;5051814;28;20029;-56
2022/12/05 10:56:36;;;;;;;85.13;44.08;;;4.10;99.90;;;;;;5051421;28;20035;-55
2022/12/05 10:59:02;;;;;;;82.22;44.72;;;4.20;99.90;;;;;;5051457;28;20380;-56
2022/12/05 11:01:28;;;;;;;82.70;43.92;;;4.30;99.90;;;;;;5051790;28;20110;-55
2022/12/05 11:04:06;;;;;;;83.18;45.67;;;4.30;99.90;;;;;;5051604;28;20095;-56
2022/12/05 11:06:32;;;;;;;81.25;45.33;;;4.30;99.90;;;;;;5051024;28;20025;-60
2022/12/05 11:09:35;;;;;;;84.95;45.40;;;4.30;99.90;;;;;;5051286;28;20036;-60
2022/12/05 11:12:19;;;;;;;75.43;41.63;;;4.30;99.90;;;;;;4989433;28;20478;-55
2022/12/05 11:15:00;;;;;;;74.53;42.80;;;4.40;99.90;;;;;;5047369;28;20044;-56
2022/12/05 11:17:37;;;;;;;81.50;43.72;;;4.40;99.90;;;;;;5051680;28;20028;-59
2022/12/05 11:20:22;;;;;;;82.15;43.58;;;4.40;99.90;;;;;;5051112;28;20037;-60
2022/12/05 11:22:55;;;;;;;83.22;43.58;;;4.40;99.90;;;;;;5051145;28;20100;-54
2022/12/05 11:25:27;;;;;;;79.43;43.35;;;4.40;99.90;;;;;;5051058;28;20501;-62
2022/12/05 11:27:53;;;;;;;77.78;44.55;;;4.40;99.90;;;;;;5050935;28;20047;-61
2022/12/05 11:30:22;;;;;;;78.30;44.80;;;4.40;99.90;;;;;;5051069;28;20021;-54
2022/12/05 11:32:49;;;;;;;85.82;46.40;;;4.40;99.90;;;;;;5050994;28;20432;-56
2022/12/05 11:35:15;;;;;;;99.82;50.45;;;4.40;99.90;;;;;;5050978;28;20028;-60
2022/12/05 11:38:01;;;;;;;86.25;47.35;;;4.40;99.90;;;;;;5051024;28;20025;-55
2022/12/05 11:40:38;;;;;;;83.25;46.78;;;4.40;99.90;;;;;;5051040;28;20036;-54
2022/12/05 11:43:18;;;;;;;98.97;51.97;;;4.30;99.90;;;;;;5032755;28;20021;-60
2022/12/05 11:45:44;;;;;;;92.63;51.58;;;4.40;99.90;;;;;;5050652;28;20032;-58
2022/12/05 11:48:20;;;;;;;95.47;48.47;;;4.40;99.90;;;;;;5049517;28;20021;-55
2022/12/05 11:51:10;;;;;;;93.25;49.13;;;4.40;99.90;;;;;;5050995;28;20039;-59
2022/12/05 11:53:56;;;;;;;89.32;46.75;;;4.40;99.90;;;;;;5050881;28;20032;-61
2022/12/05 11:56:37;;;;;;;89.53;48.03;;;4.30;99.90;;;;;;5050587;28;20131;-55
2022/12/05 11:59:03;;;;;;;86.07;47.72;;;4.30;99.90;;;;;;5050662;28;20037;-57
2022/12/05 12:02:12;;;;;;;86.90;48.10;;;4.50;99.90;;;;;;5050583;28;20047;-54
2022/12/05 12:04:56;;;;;;;83.78;47.08;;;4.40;99.90;;;;;;5050422;28;20021;-54
2022/12/05 12:07:24;;;;;;;93.82;47.08;;;4.50;99.90;;;;;;5050335;28;20029;-60
2022/12/05 12:10:05;;;;;;;89.53;49.33;;;4.50;99.90;;;;;;5050469;28;20525;-55
2022/12/05 12:12:55;;;;;;;93.15;49.50;;;4.50;99.90;;;;;;5050376;28;20044;-57
2022/12/05 12:15:33;;;;;;;81.22;44.20;;;4.50;99.90;;;;;;5050276;28;20036;-59
2022/12/05 12:18:27;;;;;;;95.13;49.95;;;4.50;99.90;;;;;;5050286;28;20032;-53
2022/12/05 12:21:15;;;;;;;90.40;45.97;;;4.50;99.90;;;;;;5032370;28;20055;-55
2022/12/05 12:24:13;;;;;;;89.53;47.42;;;4.60;99.90;;;;;;5050289;28;20044;-59
2022/12/05 12:27:15;;;;;;;88.50;46.83;;;4.60;99.90;;;;;;5049979;28;20076;-59
2022/12/05 12:29:47;;;;;;;84.78;48.78;;;4.70;99.90;;;;;;5049797;28;20071;-58
2022/12/05 12:32:27;;;;;;;81.60;45.47;;;4.80;99.90;;;;;;5050222;28;20533;-57
2022/12/05 12:34:58;;;;;;;80.15;46.92;;;4.80;99.90;;;;;;5050168;28;20079;-54
2022/12/05 12:37:42;;;;;;;84.90;45.97;;;4.80;99.90;;;;;;5050034;28;20095;-55
2022/12/05 12:40:13;;;;;;;85.70;44.42;;;4.90;99.90;;;;;;5049945;28;20033;-55
2022/12/05 12:42:51;;;;;;;87.53;47.80;;;4.90;99.90;;;;;;5049876;28;20048;-54
2022/12/05 12:45:31;;;;;;;81.75;44.65;;;5.00;99.90;;;;;;5049645;28;20116;-55
2022/12/05 12:48:08;;;;;;;85.90;45.03;;;5.00;99.90;;;;;;5049872;28;20021;-54
2022/12/05 12:50:39;;;;;;;68.47;39.38;;;5.10;99.90;;;;;;5049802;28;20033;-56
2022/12/05 12:53:42;;;;;;;69.28;40.83;;;5.10;99.90;;;;;;5049819;28;20021;-55
2022/12/05 12:56:26;;;;;;;67.95;38.47;;;5.10;99.90;;;;;;5049768;28;20139;-61
2022/12/05 12:58:55;;;;;;;69.68;38.03;;;5.10;99.90;;;;;;5049550;28;20037;-54
2022/12/05 13:01:30;;;;;;;69.30;38.65;;;5.20;99.90;;;;;;5049547;28;20029;-59
2022/12/05 13:04:19;;;;;;;65.78;38.67;;;5.20;99.90;;;;;;5054415;28;20055;-57
2022/12/05 13:06:54;;;;;;;72.53;39.55;;;5.20;99.90;;;;;;5042236;28;20120;-59
2022/12/05 13:09:25;;;;;;;70.13;38.83;;;5.20;99.90;;;;;;5041509;28;20036;-57